Time;durP1;ratioP1;P1;durP2;ratioP2;P2;SDS_P1;SDS_P2;PMS_P1;PMS_P2;Temp;Humidity;BMP_temperature;BMP_pressure;BME280_temperature;BME280_humidity;BME280_pressure;Samples;Min_cycle;Max_cycle;Signal;HPM_P1;HPM_P2
2022/01/01 07:00:34;;;;;;;38.65;5.45;;;;;;;;;;5705599;24;20057;-84
2022/01/01 07:03:02;;;;;;;45.05;6.13;;;;;;;;;;4871222;29;20141;-83
2022/01/01 07:05:29;;;;;;;31.25;5.28;;;;;;;;;;4872391;29;20048;-82
2022/01/01 07:07:55;;;;;;;27.45;5.70;;;;;;;;;;4871612;29;20120;-82
2022/01/01 07:10:22;;;;;;;32.75;6.07;;;;;;;;;;4869606;29;20053;-82
2022/01/01 07:12:49;;;;;;;33.17;5.32;;;;;;;;;;4868905;29;20506;-82
2022/01/01 07:15:15;;;;;;;34.97;5.55;;;;;;;;;;4869222;29;20045;-81
2022/01/01 07:17:42;;;;;;;35.83;6.13;;;;;;;;;;4869196;29;20045;-81
2022/01/01 07:20:11;;;;;;;30.52;5.68;;;;;;;;;;4873238;29;20115;-82
2022/01/01 07:22:46;;;;;;;34.22;5.25;;;;;;;;;;4869722;29;20628;-81
2022/01/01 07:25:14;;;;;;;47.72;7.15;;;;;;;;;;4869113;29;20370;-83
2022/01/01 07:27:42;;;;;;;33.57;5.97;;;;;;;;;;4868873;29;20077;-83
2022/01/01 07:30:09;;;;;;;27.30;5.30;;;;;;;;;;4868252;29;20160;-82
2022/01/01 07:32:44;;;;;;;35.38;5.85;;;;;;;;;;4869472;29;20053;-82
2022/01/01 07:35:12;;;;;;;30.42;5.95;;;;;;;;;;4873266;29;20113;-82
2022/01/01 07:37:40;;;;;;;24.75;5.03;;;;;;;;;;4870220;29;20045;-81
2022/01/01 07:40:09;;;;;;;30.60;5.68;;;;;;;;;;4868332;29;20053;-82
2022/01/01 07:42:37;;;;;;;32.63;5.38;;;;;;;;;;4868923;29;20372;-80
2022/01/01 07:45:05;;;;;;;26.73;4.40;;;;;;;;;;4868785;29;20438;-81
2022/01/01 07:47:35;;;;;;;24.65;5.28;;;;;;;;;;4871019;29;20136;-81
2022/01/01 07:50:14;;;;;;;26.83;5.32;;;;;;;;;;4870874;29;20053;-85
2022/01/01 07:53:15;;;;;;;;;;;;;;;;;;;;;
2022/01/01 07:55:56;;;;;;;35.90;5.35;;;;;;;;;;4873681;29;20085;-82
2022/01/01 07:58:24;;;;;;;35.60;5.88;;;;;;;;;;4886164;29;20049;-84
2022/01/01 08:00:51;;;;;;;31.92;5.72;;;;;;;;;;4872090;29;20364;-80
2022/01/01 08:03:17;;;;;;;30.17;6.05;;;;;;;;;;4870339;29;20059;-82
2022/01/01 08:05:44;;;;;;;26.40;5.13;;;;;;;;;;4886871;29;20086;-82
2022/01/01 08:08:11;;;;;;;39.05;6.63;;;;;;;;;;4872961;29;20238;-82
2022/01/01 08:10:39;;;;;;;33.22;5.20;;;;;;;;;;4874674;29;20105;-81
2022/01/01 08:13:08;;;;;;;31.95;5.00;;;;;;;;;;4871138;29;20526;-81
2022/01/01 08:15:34;;;;;;;24.08;6.00;;;;;;;;;;4873998;29;20049;-81
2022/01/01 08:18:02;;;;;;;34.55;6.05;;;;;;;;;;4873311;29;20052;-81
2022/01/01 08:20:36;;;;;;;36.47;6.70;;;;;;;;;;4873823;29;20052;-81
2022/01/01 08:23:03;;;;;;;25.73;5.15;;;;;;;;;;4873207;29;20113;-81
2022/01/01 08:25:30;;;;;;;25.45;5.50;;;;;;;;;;4874116;29;20053;-81
2022/01/01 08:27:56;;;;;;;29.15;5.93;;;;;;;;;;4873203;29;20415;-81
2022/01/01 08:30:23;;;;;;;39.15;5.47;;;;;;;;;;4886642;29;20100;-81
2022/01/01 08:32:50;;;;;;;46.35;5.60;;;;;;;;;;4873869;29;20053;-82
2022/01/01 08:35:16;;;;;;;40.50;6.70;;;;;;;;;;4873200;29;20097;-82
2022/01/01 08:37:43;;;;;;;35.45;5.82;;;;;;;;;;4872321;29;20093;-82
2022/01/01 08:40:11;;;;;;;30.65;5.60;;;;;;;;;;4872289;29;20080;-84
2022/01/01 08:42:37;;;;;;;44.95;5.93;;;;;;;;;;4873123;29;20112;-82
2022/01/01 08:45:04;;;;;;;36.00;5.70;;;;;;;;;;4870782;29;20549;-82
2022/01/01 08:47:31;;;;;;;38.58;5.80;;;;;;;;;;4887234;29;20495;-82
2022/01/01 08:49:58;;;;;;;42.10;5.78;;;;;;;;;;4873201;29;20105;-83
2022/01/01 08:52:25;;;;;;;37.55;6.03;;;;;;;;;;4872485;29;20424;-83
2022/01/01 08:54:56;;;;;;;34.60;6.13;;;;;;;;;;4870255;29;20041;-83
2022/01/01 08:57:23;;;;;;;29.20;5.18;;;;;;;;;;4871154;29;20124;-83
2022/01/01 08:59:50;;;;;;;36.55;6.30;;;;;;;;;;4870724;29;20156;-83
2022/01/01 09:02:17;;;;;;;37.42;5.22;;;;;;;;;;4870142;29;20096;-81
2022/01/01 09:04:44;;;;;;;45.17;7.22;;;;;;;;;;4870498;29;20064;-81
2022/01/01 09:07:12;;;;;;;37.85;6.43;;;;;;;;;;4872273;29;20073;-81
2022/01/01 09:09:40;;;;;;;44.63;6.78;;;;;;;;;;4873020;29;20141;-81
2022/01/01 09:12:08;;;;;;;40.25;5.53;;;;;;;;;;4870508;29;20056;-82
2022/01/01 09:14:34;;;;;;;33.58;5.72;;;;;;;;;;4873208;29;20116;-83
2022/01/01 09:17:02;;;;;;;42.63;5.97;;;;;;;;;;4872957;29;20588;-83
2022/01/01 09:19:29;;;;;;;41.27;5.97;;;;;;;;;;4872360;29;20409;-83
2022/01/01 09:21:55;;;;;;;37.83;6.05;;;;;;;;;;4887092;29;20575;-83
2022/01/01 09:24:22;;;;;;;37.25;6.78;;;;;;;;;;4872511;29;20077;-82
2022/01/01 09:26:50;;;;;;;46.45;6.10;;;;;;;;;;4872470;29;20049;-82
2022/01/01 09:29:21;;;;;;;36.78;5.75;;;;;;;;;;4872615;29;20049;-83
2022/01/01 09:31:47;;;;;;;42.50;6.45;;;;;;;;;;4872786;29;20498;-82
2022/01/01 09:34:15;;;;;;;34.08;6.70;;;;;;;;;;4872572;29;20140;-83
2022/01/01 09:36:41;;;;;;;47.42;6.53;;;;;;;;;;4871061;29;20514;-82
2022/01/01 09:39:08;;;;;;;40.17;5.95;;;;;;;;;;4872308;29;20106;-83
2022/01/01 09:41:40;;;;;;;39.53;6.28;;;;;;;;;;4872063;29;20045;-82
2022/01/01 09:44:15;;;;;;;39.80;6.38;;;;;;;;;;4871972;29;20136;-82
2022/01/01 09:46:44;;;;;;;36.92;6.63;;;;;;;;;;4871999;29;20048;-82
2022/01/01 09:49:16;;;;;;;37.92;6.95;;;;;;;;;;4872176;29;20140;-83
2022/01/01 09:51:44;;;;;;;43.67;7.30;;;;;;;;;;4872084;29;20089;-82
2022/01/01 09:54:10;;;;;;;41.45;7.78;;;;;;;;;;4870580;29;20109;-83
2022/01/01 09:56:38;;;;;;;41.47;6.38;;;;;;;;;;4872482;29;20049;-83
2022/01/01 09:59:05;;;;;;;47.72;6.68;;;;;;;;;;4871701;29;20045;-83
2022/01/01 10:01:32;;;;;;;41.00;7.00;;;;;;;;;;4872711;29;20057;-83
2022/01/01 10:04:00;;;;;;;41.60;6.20;;;;;;;;;;4870285;29;20063;-82
2022/01/01 10:06:29;;;;;;;43.55;7.25;;;;;;;;;;4884342;29;20040;-84
2022/01/01 10:09:03;;;;;;;42.83;7.32;;;;;;;;;;4885415;29;20056;-83
2022/01/01 10:11:33;;;;;;;37.78;6.15;;;;;;;;;;4871231;29;20056;-83
2022/01/01 10:14:05;;;;;;;45.50;6.43;;;;;;;;;;4872137;29;20057;-82
2022/01/01 10:16:36;;;;;;;26.90;6.00;;;;;;;;;;4872001;29;20112;-82
2022/01/01 10:19:03;;;;;;;47.72;7.60;;;;;;;;;;4871102;29;20053;-82
2022/01/01 10:21:37;;;;;;;46.13;6.80;;;;;;;;;;4870717;29;20053;-83
2022/01/01 10:24:12;;;;;;;48.40;7.75;;;;;;;;;;4871228;29;20060;-83
2022/01/01 10:29:30;;;;;;;44.88;7.60;;;;;;;;;;4871206;29;20057;-82
2022/01/01 10:32:08;;;;;;;48.38;7.47;;;;;;;;;;4871547;29;20082;-82
2022/01/01 10:34:43;;;;;;;46.03;7.03;;;;;;;;;;4871868;29;20128;-82
2022/01/01 10:37:31;;;;;;;41.97;6.63;;;;;;;;;;4870485;29;20084;-85
2022/01/01 10:39:58;;;;;;;30.08;5.45;;;;;;;;;;4871387;29;20049;-85
2022/01/01 10:42:26;;;;;;;47.50;6.65;;;;;;;;;;4871437;29;20049;-84
2022/01/01 10:44:54;;;;;;;47.70;7.25;;;;;;;;;;4870445;29;20049;-83
2022/01/01 10:47:32;;;;;;;27.35;5.50;;;;;;;;;;4868755;29;20640;-83
2022/01/01 10:52:35;;;;;;;37.60;7.03;;;;;;;;;;4871245;29;20053;-85
2022/01/01 10:55:07;;;;;;;39.75;6.20;;;;;;;;;;4869159;29;20057;-84
2022/01/01 10:57:35;;;;;;;51.65;7.47;;;;;;;;;;4883902;29;20533;-84
2022/01/01 11:00:17;;;;;;;32.10;6.90;;;;;;;;;;4870680;29;20049;-85
2022/01/01 11:02:49;;;;;;;45.03;7.53;;;;;;;;;;4869217;29;20884;-85
2022/01/01 11:05:16;;;;;;;44.55;7.25;;;;;;;;;;4868859;29;20061;-84
2022/01/01 11:07:51;;;;;;;46.08;6.25;;;;;;;;;;4884132;29;20056;-85
2022/01/01 11:10:21;;;;;;;44.70;7.53;;;;;;;;;;4869463;29;20148;-84
2022/01/01 11:12:49;;;;;;;47.42;7.20;;;;;;;;;;4871835;29;20854;-85
2022/01/01 11:15:16;;;;;;;34.05;5.93;;;;;;;;;;4883138;29;20558;-85
2022/01/01 11:17:43;;;;;;;47.60;6.45;;;;;;;;;;4870257;29;20057;-85
2022/01/01 11:20:14;;;;;;;53.13;7.38;;;;;;;;;;4870508;29;20045;-84
2022/01/01 11:22:46;;;;;;;43.95;7.15;;;;;;;;;;4872732;29;20064;-84
2022/01/01 11:25:14;;;;;;;43.75;6.63;;;;;;;;;;4873975;29;20044;-84
2022/01/01 11:27:41;;;;;;;47.92;6.20;;;;;;;;;;4875051;29;20057;-85
2022/01/01 11:30:11;;;;;;;49.13;6.60;;;;;;;;;;4871502;29;20046;-84
2022/01/01 11:32:41;;;;;;;51.80;7.30;;;;;;;;;;4874205;29;20049;-85
2022/01/01 11:35:10;;;;;;;43.65;6.82;;;;;;;;;;4873956;29;20045;-85
2022/01/01 11:37:59;;;;;;;50.53;8.15;;;;;;;;;;4875243;29;20221;-83
2022/01/01 11:40:27;;;;;;;40.28;6.72;;;;;;;;;;4873616;29;20061;-85
2022/01/01 11:42:54;;;;;;;21.02;4.80;;;;;;;;;;4873885;29;20041;-85
2022/01/01 11:45:39;;;;;;;36.45;6.82;;;;;;;;;;4873909;29;20053;-82
2022/01/01 11:48:32;;;;;;;44.97;6.75;;;;;;;;;;4878127;29;20048;-83
2022/01/01 11:51:26;;;;;;;41.00;7.35;;;;;;;;;;4873585;29;20053;-84
2022/01/01 11:54:26;;;;;;;44.35;6.60;;;;;;;;;;4866706;29;20060;-84
2022/01/01 11:56:56;;;;;;;41.83;8.50;;;;;;;;;;4852194;29;20049;-84
2022/01/01 11:59:33;;;;;;;43.30;7.68;;;;;;;;;;4851796;29;20138;-84
2022/01/01 12:02:02;;;;;;;27.42;6.55;;;;;;;;;;4852733;29;20053;-85
2022/01/01 12:04:41;;;;;;;39.10;6.13;;;;;;;;;;4853135;29;20057;-85
2022/01/01 12:07:16;;;;;;;49.05;7.78;;;;;;;;;;4853068;29;20053;-85
2022/01/01 12:09:55;;;;;;;52.03;8.10;;;;;;;;;;4852371;29;20045;-84
2022/01/01 12:12:38;;;;;;;45.47;7.47;;;;;;;;;;4852121;29;20056;-84
2022/01/01 12:15:08;;;;;;;41.55;8.23;;;;;;;;;;4851414;29;20090;-83
2022/01/01 12:17:45;;;;;;;39.80;8.10;;;;;;;;;;4851427;29;20208;-85
2022/01/01 12:20:17;;;;;;;31.00;7.80;;;;;;;;;;4845683;29;20045;-85
2022/01/01 12:22:48;;;;;;;43.13;8.20;;;;;;;;;;4850992;29;20053;-85
2022/01/01 12:25:25;;;;;;;50.42;8.35;;;;;;;;;;4851518;29;20049;-83
2022/01/01 12:27:55;;;;;;;52.03;10.20;;;;;;;;;;4849342;29;20455;-85
2022/01/01 12:30:43;;;;;;;99.28;38.45;;;;;;;;;;4841154;29;20153;-83
2022/01/01 12:33:20;;;;;;;44.22;17.00;;;;;;;;;;4864132;29;20050;-83
2022/01/01 12:35:50;;;;;;;39.35;7.55;;;;;;;;;;4885737;29;20714;-83
2022/01/01 12:38:39;;;;;;;39.58;8.80;;;;;;;;;;4869613;29;20437;-82
2022/01/01 12:41:14;;;;;;;37.60;7.10;;;;;;;;;;4872212;29;20052;-82
2022/01/01 12:43:54;;;;;;;36.85;7.68;;;;;;;;;;4869658;29;20144;-83
2022/01/01 12:46:25;;;;;;;41.67;12.60;;;;;;;;;;4885900;29;20045;-84
2022/01/01 12:49:00;;;;;;;40.95;12.23;;;;;;;;;;4871734;29;20100;-82
2022/01/01 12:51:30;;;;;;;51.80;11.02;;;;;;;;;;4870887;29;20052;-83
2022/01/01 12:53:59;;;;;;;41.88;7.32;;;;;;;;;;4869848;29;20137;-82
2022/01/01 12:56:28;;;;;;;38.95;6.78;;;;;;;;;;4871670;29;20049;-82
2022/01/01 12:58:58;;;;;;;28.15;5.90;;;;;;;;;;4872462;29;20057;-81
2022/01/01 13:01:30;;;;;;;32.38;5.82;;;;;;;;;;4870483;29;20613;-84
2022/01/01 13:04:09;;;;;;;40.15;6.18;;;;;;;;;;4886155;29;20060;-85
2022/01/01 13:06:38;;;;;;;41.80;6.80;;;;;;;;;;4870851;29;20510;-83
2022/01/01 13:09:15;;;;;;;35.08;6.50;;;;;;;;;;4863066;29;20048;-85
2022/01/01 13:11:44;;;;;;;34.70;6.65;;;;;;;;;;4862067;29;20057;-84
2022/01/01 13:14:12;;;;;;;39.47;6.50;;;;;;;;;;4885725;29;20064;-86
2022/01/01 13:16:38;;;;;;;36.97;6.47;;;;;;;;;;4865844;29;20475;-86
2022/01/01 13:19:06;;;;;;;35.80;5.70;;;;;;;;;;4863917;29;20518;-86
2022/01/01 13:21:33;;;;;;;32.20;5.47;;;;;;;;;;4882967;29;20041;-87
2022/01/01 13:24:03;;;;;;;36.03;6.47;;;;;;;;;;4873136;29;20545;-87
2022/01/01 13:26:32;;;;;;;39.78;6.32;;;;;;;;;;4873346;29;20121;-87
2022/01/01 13:29:00;;;;;;;30.23;5.03;;;;;;;;;;4871039;29;20060;-87
2022/01/01 13:31:29;;;;;;;;;;;;;;;;;;4869294;29;20045;-85
2022/01/01 13:33:58;;;;;;;37.40;7.00;;;;;;;;;;4873920;29;19954;-88
2022/01/01 13:36:34;;;;;;;33.53;6.45;;;;;;;;;;4887518;29;20056;-85
2022/01/01 13:39:07;;;;;;;40.35;6.93;;;;;;;;;;4873405;29;20477;-85
2022/01/01 13:41:37;;;;;;;46.83;6.65;;;;;;;;;;4852292;29;20156;-86
2022/01/01 13:44:26;;;;;;;40.13;7.75;;;;;;;;;;4871289;29;20338;-86
2022/01/01 13:46:59;;;;;;;;;;;;;;;;;;4863270;29;20067;-85
2022/01/01 13:49:26;;;;;;;46.67;8.05;;;;;;;;;;4871898;29;19932;-87
2022/01/01 13:51:57;;;;;;;39.00;7.40;;;;;;;;;;4863289;29;20111;-85
2022/01/01 13:54:25;;;;;;;39.80;6.20;;;;;;;;;;4858869;29;20051;-86
2022/01/01 13:57:01;;;;;;;22.25;4.38;;;;;;;;;;4871182;29;20049;-87
2022/01/01 13:59:28;;;;;;;42.30;7.25;;;;;;;;;;4885474;29;20100;-87
2022/01/01 14:01:57;;;;;;;34.17;5.97;;;;;;;;;;4872672;29;20068;-87
2022/01/01 14:04:24;;;;;;;35.50;6.63;;;;;;;;;;4886246;29;20056;-89
2022/01/01 14:07:13;;;;;;;54.85;12.88;;;;;;;;;;4872009;29;20060;-88
2022/01/01 14:09:55;;;;;;;;;;;;;;;;;;4871721;29;20052;-88
2022/01/01 14:12:23;;;;;;;36.22;6.20;;;;;;;;;;4870966;29;19931;-87
2022/01/01 14:14:50;;;;;;;36.17;6.28;;;;;;;;;;4874063;29;20052;-89
2022/01/01 14:17:16;;;;;;;34.67;6.22;;;;;;;;;;4873919;29;20093;-88
2022/01/01 14:19:43;;;;;;;40.55;7.82;;;;;;;;;;4874446;29;20121;-88
2022/01/01 14:22:10;;;;;;;38.60;6.80;;;;;;;;;;4873004;29;20049;-88
2022/01/01 14:24:51;;;;;;;39.22;7.35;;;;;;;;;;4874080;29;20055;-86
2022/01/01 14:27:20;;;;;;;44.00;6.82;;;;;;;;;;4873504;29;20160;-88
2022/01/01 14:29:46;;;;;;;38.28;6.60;;;;;;;;;;4874031;29;20045;-86
2022/01/01 14:32:15;;;;;;;43.58;7.55;;;;;;;;;;4871802;29;20050;-90
2022/01/01 14:34:43;;;;;;;48.90;7.75;;;;;;;;;;4886841;29;20053;-89
2022/01/01 14:37:10;;;;;;;42.10;6.90;;;;;;;;;;4872739;29;20049;-87
2022/01/01 14:39:37;;;;;;;35.63;6.60;;;;;;;;;;4870169;29;20049;-85
2022/01/01 14:42:05;;;;;;;39.75;6.82;;;;;;;;;;4869592;29;20052;-87
2022/01/01 14:44:32;;;;;;;35.38;6.38;;;;;;;;;;4884637;29;20068;-88
2022/01/01 14:47:04;;;;;;;39.03;9.40;;;;;;;;;;4871219;29;20044;-86
2022/01/01 14:49:45;;;;;;;43.35;7.28;;;;;;;;;;4870496;29;20052;-85
2022/01/01 14:52:26;;;;;;;50.55;7.03;;;;;;;;;;4883954;29;20060;-87
2022/01/01 14:55:06;;;;;;;42.40;7.85;;;;;;;;;;4869009;29;20053;-84
2022/01/01 14:57:38;;;;;;;42.80;6.93;;;;;;;;;;4868842;29;20048;-86
2022/01/01 15:00:15;;;;;;;42.92;6.75;;;;;;;;;;4868285;29;20778;-84
2022/01/01 15:02:44;;;;;;;43.97;6.55;;;;;;;;;;4882580;29;20053;-83
2022/01/01 15:05:12;;;;;;;;;;;;;;;;;;4870165;29;20052;-83
2022/01/01 15:07:40;;;;;;;48.65;7.88;;;;;;;;;;4870989;29;19932;-83
2022/01/01 15:10:12;;;;;;;;;;;;;;;;;;4869054;29;20068;-82
2022/01/01 15:12:39;;;;;;;38.72;6.93;;;;;;;;;;4869343;29;20338;-81
2022/01/01 15:15:08;;;;;;;38.67;8.73;;;;;;;;;;4869539;29;20060;-81
2022/01/01 15:17:37;;;;;;;46.13;8.02;;;;;;;;;;4869418;29;20064;-83
2022/01/01 15:20:05;;;;;;;52.63;10.68;;;;;;;;;;4870274;29;20101;-83
2022/01/01 15:22:50;;;;;;;32.47;6.50;;;;;;;;;;4871733;29;20677;-88
2022/01/01 15:25:20;;;;;;;39.45;8.02;;;;;;;;;;4847586;29;20056;-85
2022/01/01 15:27:48;;;;;;;46.72;9.05;;;;;;;;;;4870995;29;20104;-84
2022/01/01 15:30:35;;;;;;;48.55;9.32;;;;;;;;;;4869483;29;20093;-85
2022/01/01 15:33:15;;;;;;;52.58;8.57;;;;;;;;;;4869904;29;20053;-83
2022/01/01 15:38:43;;;;;;;49.25;7.82;;;;;;;;;;4865580;29;20101;-84
2022/01/01 15:44:03;;;;;;;57.10;9.63;;;;;;;;;;4870791;29;20100;-90
2022/01/01 15:46:33;;;;;;;58.65;9.65;;;;;;;;;;4865505;29;20053;-87
2022/01/01 15:49:01;;;;;;;46.22;9.95;;;;;;;;;;4872379;29;20060;-89
2022/01/01 15:51:29;;;;;;;60.45;10.02;;;;;;;;;;4874572;29;20056;-89
2022/01/01 15:54:00;;;;;;;44.28;9.13;;;;;;;;;;4889205;29;20048;-91
2022/01/01 16:03:14;;;;;;;57.38;13.68;;;;;;;;;;4746318;29;20222;-90
2022/01/01 16:06:06;;;;;;;60.67;11.80;;;;;;;;;;4764471;29;20070;-86
2022/01/01 16:08:35;;;;;;;79.15;18.23;;;;;;;;;;4759593;29;20070;-87
2022/01/01 16:11:07;;;;;;;58.25;17.70;;;;;;;;;;4756999;29;20182;-83
2022/01/01 16:13:43;;;;;;;69.38;14.45;;;;;;;;;;4757772;29;20660;-84
2022/01/01 16:16:11;;;;;;;56.95;11.43;;;;;;;;;;4773101;29;20060;-84
2022/01/01 16:18:47;;;;;;;64.25;14.38;;;;;;;;;;4761370;29;20758;-85
2022/01/01 16:21:16;;;;;;;58.05;12.98;;;;;;;;;;4758976;29;20184;-86
2022/01/01 16:23:44;;;;;;;54.60;10.98;;;;;;;;;;4752481;29;20052;-90
2022/01/01 16:26:13;;;;;;;57.58;12.13;;;;;;;;;;4761960;29;20048;-88
2022/01/01 16:28:41;;;;;;;53.53;11.95;;;;;;;;;;4762762;29;20067;-89
2022/01/01 16:31:11;;;;;;;48.65;10.10;;;;;;;;;;4756213;29;20496;-89
2022/01/01 16:34:03;;;;;;;;;;;;;;;;;;;;;
2022/01/01 16:36:46;;;;;;;52.80;10.07;;;;;;;;;;4760394;29;20052;-87
2022/01/01 16:39:13;;;;;;;74.57;10.85;;;;;;;;;;4770284;29;20054;-89
2022/01/01 16:41:54;;;;;;;57.90;10.40;;;;;;;;;;4889304;29;20403;-86
2022/01/01 16:44:39;;;;;;;53.17;12.85;;;;;;;;;;4870559;29;20069;-80
2022/01/01 16:47:18;;;;;;;54.40;13.32;;;;;;;;;;4884079;29;20056;-83
2022/01/01 16:50:15;;;;;;;65.38;15.00;;;;;;;;;;4870131;29;20048;-85
2022/01/01 16:52:57;;;;;;;65.30;15.13;;;;;;;;;;4866245;29;20139;-81
2022/01/01 16:55:27;;;;;;;56.95;12.75;;;;;;;;;;4864185;29;304737;-87
2022/01/01 16:59:08;;;;;;;62.10;12.48;;;;;;;;;;5012097;28;20505;-85
2022/01/01 17:01:41;;;;;;;71.20;10.93;;;;;;;;;;5000557;28;20067;-85
2022/01/01 17:04:14;;;;;;;55.45;9.30;;;;;;;;;;5021003;28;20061;-84
2022/01/01 17:06:45;;;;;;;52.47;10.38;;;;;;;;;;5021451;28;20119;-84
2022/01/01 17:09:23;;;;;;;45.80;10.15;;;;;;;;;;5016080;28;20053;-82
2022/01/01 17:11:51;;;;;;;62.28;9.77;;;;;;;;;;5019787;28;20129;-84
2022/01/01 17:14:19;;;;;;;47.67;10.93;;;;;;;;;;4862515;28;3044277;-88
2022/01/01 17:17:02;;;;;;;56.17;10.07;;;;;;;;;;5017528;28;20057;-81
2022/01/01 17:19:46;;;;;;;49.65;9.75;;;;;;;;;;5019001;28;20048;-84
2022/01/01 17:22:31;;;;;;;58.40;10.10;;;;;;;;;;5014273;28;20045;-81
2022/01/01 17:25:27;;;;;;;51.85;9.45;;;;;;;;;;5016703;28;20137;-84
2022/01/01 17:28:16;;;;;;;55.55;9.23;;;;;;;;;;5014579;28;20518;-86
2022/01/01 17:30:47;;;;;;;56.20;9.52;;;;;;;;;;5017943;28;20069;-87
2022/01/01 17:33:27;;;;;;;59.10;10.18;;;;;;;;;;5015415;28;20639;-86
2022/01/01 17:42:05;;;;;;;68.88;11.50;;;;;;;;;;5015844;28;20064;-88
2022/01/01 17:44:36;;;;;;;60.38;11.55;;;;;;;;;;5017568;28;20100;-85
2022/01/01 17:47:28;;;;;;;52.67;10.35;;;;;;;;;;5007050;28;20062;-89
2022/01/01 17:52:40;;;;;;;53.85;11.35;;;;;;;;;;5019034;28;20063;-86
2022/01/01 17:55:25;;;;;;;54.13;9.68;;;;;;;;;;5019293;28;20340;-83
2022/01/01 17:57:57;;;;;;;55.53;11.15;;;;;;;;;;4986632;28;20061;-84
2022/01/01 18:00:28;;;;;;;50.60;9.73;;;;;;;;;;4973888;28;195776;-85
2022/01/01 18:02:56;;;;;;;43.15;9.40;;;;;;;;;;4983113;28;20502;-86
2022/01/01 18:05:25;;;;;;;45.33;8.88;;;;;;;;;;5007068;28;20049;-84
2022/01/01 18:07:59;;;;;;;46.63;8.82;;;;;;;;;;5011067;28;20053;-87
2022/01/01 18:10:34;;;;;;;58.85;10.50;;;;;;;;;;4989502;28;20064;-85
2022/01/01 18:13:02;;;;;;;57.13;8.73;;;;;;;;;;4688425;28;7078918;-84
2022/01/01 18:15:29;;;;;;;61.45;9.68;;;;;;;;;;4998670;28;20915;-85
2022/01/01 18:17:59;;;;;;;54.60;11.15;;;;;;;;;;4972803;28;20053;-85
2022/01/01 18:20:27;;;;;;;49.65;10.80;;;;;;;;;;4977363;28;20508;-84
2022/01/01 18:22:56;;;;;;;58.15;11.75;;;;;;;;;;4978049;28;20544;-86
2022/01/01 18:25:28;;;;;;;61.08;12.93;;;;;;;;;;4970570;28;20073;-85
2022/01/01 18:28:19;;;;;;;58.60;11.68;;;;;;;;;;4988653;28;20042;-85
2022/01/01 18:30:47;;;;;;;59.35;12.55;;;;;;;;;;4991624;28;20140;-86
2022/01/01 18:33:19;;;;;;;61.65;11.70;;;;;;;;;;4986946;28;20045;-86
2022/01/01 18:35:46;;;;;;;59.92;11.55;;;;;;;;;;5023297;28;20476;-87
2022/01/01 18:38:18;;;;;;;51.83;11.68;;;;;;;;;;5009569;28;20049;-87
2022/01/01 18:40:46;;;;;;;61.08;11.75;;;;;;;;;;5024659;28;20108;-86
2022/01/01 18:43:13;;;;;;;50.43;11.50;;;;;;;;;;5023927;28;20045;-86
2022/01/01 18:45:40;;;;;;;50.95;12.10;;;;;;;;;;5011121;28;20052;-86
2022/01/01 18:48:08;;;;;;;61.90;12.85;;;;;;;;;;5025160;28;20100;-86
2022/01/01 18:50:56;;;;;;;50.28;12.90;;;;;;;;;;5014061;28;20054;-87
2022/01/01 18:53:28;;;;;;;54.95;13.45;;;;;;;;;;5007557;28;20480;-87
2022/01/01 18:55:58;;;;;;;67.45;14.68;;;;;;;;;;5021401;28;20099;-88
2022/01/01 18:58:33;;;;;;;67.50;13.52;;;;;;;;;;5019840;28;20045;-84
2022/01/01 19:01:01;;;;;;;58.35;11.88;;;;;;;;;;5004025;28;20053;-86
2022/01/01 19:03:30;;;;;;;58.92;12.48;;;;;;;;;;5021288;28;20049;-88
2022/01/01 19:06:01;;;;;;;41.47;10.50;;;;;;;;;;5016837;28;20066;-89
2022/01/01 19:08:36;;;;;;;59.85;12.18;;;;;;;;;;5022124;28;20037;-86
2022/01/01 19:11:05;;;;;;;49.70;10.43;;;;;;;;;;5019649;28;20072;-87
2022/01/01 19:13:44;;;;;;;52.03;10.98;;;;;;;;;;5020530;28;20041;-84
2022/01/01 19:16:10;;;;;;;57.88;11.25;;;;;;;;;;5018303;28;20049;-83
2022/01/01 19:18:37;;;;;;;50.13;11.30;;;;;;;;;;5015106;28;20050;-83
2022/01/01 19:21:06;;;;;;;52.92;10.70;;;;;;;;;;5020104;28;20128;-83
2022/01/01 19:23:33;;;;;;;46.10;11.25;;;;;;;;;;5010125;28;20065;-85
2022/01/01 19:26:01;;;;;;;46.08;10.68;;;;;;;;;;5006613;28;21022;-83
2022/01/01 19:28:31;;;;;;;53.13;12.82;;;;;;;;;;5019257;28;20049;-84
2022/01/01 19:30:59;;;;;;;42.00;11.77;;;;;;;;;;5017268;28;20465;-84
2022/01/01 19:33:29;;;;;;;47.33;12.32;;;;;;;;;;5001409;28;20108;-84
2022/01/01 19:35:57;;;;;;;53.90;10.38;;;;;;;;;;5016823;28;20064;-85
2022/01/01 19:38:24;;;;;;;47.03;9.98;;;;;;;;;;5014349;28;22508;-85
2022/01/01 19:41:03;;;;;;;38.60;10.32;;;;;;;;;;5005354;28;20045;-84
2022/01/01 19:43:37;;;;;;;35.67;9.02;;;;;;;;;;4997582;28;20053;-84
2022/01/01 19:46:04;;;;;;;51.22;10.55;;;;;;;;;;4997958;28;20092;-84
2022/01/01 19:48:41;;;;;;;46.97;11.00;;;;;;;;;;5004109;28;20045;-82
2022/01/01 19:51:08;;;;;;;35.58;9.63;;;;;;;;;;5002338;28;20046;-83
2022/01/01 19:53:35;;;;;;;39.33;10.45;;;;;;;;;;5002031;28;20061;-86
2022/01/01 19:56:03;;;;;;;43.60;11.07;;;;;;;;;;5002978;28;20049;-85
2022/01/01 19:58:31;;;;;;;50.20;11.32;;;;;;;;;;4990616;28;20087;-84
2022/01/01 20:01:02;;;;;;;51.53;12.63;;;;;;;;;;4982830;28;20050;-82
2022/01/01 20:03:29;;;;;;;41.47;10.93;;;;;;;;;;4981259;28;20046;-85
2022/01/01 20:05:56;;;;;;;52.58;11.18;;;;;;;;;;4979767;28;20051;-84
2022/01/01 20:08:23;;;;;;;41.53;11.32;;;;;;;;;;4984288;28;20109;-83
2022/01/01 20:10:51;;;;;;;32.22;10.75;;;;;;;;;;4983707;28;20050;-85
2022/01/01 20:13:18;;;;;;;32.67;9.38;;;;;;;;;;4983096;28;20065;-84
2022/01/01 20:15:45;;;;;;;30.90;8.85;;;;;;;;;;4977635;28;20159;-84
2022/01/01 20:18:13;;;;;;;38.10;11.18;;;;;;;;;;4976682;28;20043;-84
2022/01/01 20:20:39;;;;;;;41.63;11.05;;;;;;;;;;4974000;28;20046;-85
2022/01/01 20:23:06;;;;;;;37.35;11.18;;;;;;;;;;4977128;28;20096;-85
2022/01/01 20:25:34;;;;;;;45.70;12.52;;;;;;;;;;5005877;28;20467;-83
2022/01/01 20:28:00;;;;;;;37.25;11.02;;;;;;;;;;5009083;28;20049;-85
2022/01/01 20:30:27;;;;;;;42.08;9.20;;;;;;;;;;5008380;28;20038;-83
2022/01/01 20:32:54;;;;;;;30.40;9.48;;;;;;;;;;5008419;28;20077;-84
2022/01/01 20:35:21;;;;;;;31.88;8.68;;;;;;;;;;4994201;28;20042;-83
2022/01/01 20:37:47;;;;;;;38.20;8.98;;;;;;;;;;5009387;28;20104;-83
2022/01/01 20:40:15;;;;;;;29.75;8.65;;;;;;;;;;5006744;28;20107;-83
2022/01/01 20:42:42;;;;;;;35.20;8.73;;;;;;;;;;5002293;28;20039;-83
2022/01/01 20:45:09;;;;;;;34.72;8.70;;;;;;;;;;4997178;28;20080;-83
2022/01/01 20:47:36;;;;;;;32.40;9.23;;;;;;;;;;4993844;28;20047;-83
2022/01/01 20:50:06;;;;;;;37.40;9.10;;;;;;;;;;5007057;28;20054;-83
2022/01/01 20:52:33;;;;;;;38.00;9.05;;;;;;;;;;5007715;28;20119;-83
2022/01/01 20:55:00;;;;;;;35.67;8.77;;;;;;;;;;5007414;28;20058;-87
2022/01/01 20:57:27;;;;;;;26.95;8.00;;;;;;;;;;5005021;28;20120;-85
2022/01/01 20:59:53;;;;;;;31.40;8.32;;;;;;;;;;5006734;28;20057;-85
2022/01/01 21:02:24;;;;;;;38.35;8.52;;;;;;;;;;5007519;28;20466;-85
2022/01/01 21:05:01;;;;;;;31.27;8.48;;;;;;;;;;5021962;28;20041;-85
2022/01/01 21:07:29;;;;;;;26.73;8.07;;;;;;;;;;5008803;28;20675;-85
2022/01/01 21:10:01;;;;;;;47.15;9.70;;;;;;;;;;5006993;28;20050;-86
2022/01/01 21:12:28;;;;;;;30.52;8.30;;;;;;;;;;5008157;28;20514;-88
2022/01/01 21:14:55;;;;;;;28.90;8.88;;;;;;;;;;5010103;28;20057;-86
2022/01/01 21:17:23;;;;;;;34.67;8.07;;;;;;;;;;5005822;28;20128;-87
2022/01/01 21:19:51;;;;;;;30.63;8.48;;;;;;;;;;5009104;28;20060;-86
2022/01/01 21:22:18;;;;;;;27.50;7.78;;;;;;;;;;5008260;28;20084;-87
2022/01/01 21:24:45;;;;;;;29.60;8.32;;;;;;;;;;5007030;28;20104;-86
2022/01/01 21:27:12;;;;;;;33.05;7.97;;;;;;;;;;5005645;28;20053;-85
2022/01/01 21:29:40;;;;;;;35.38;7.40;;;;;;;;;;5006971;28;20049;-85
2022/01/01 21:32:15;;;;;;;27.60;6.72;;;;;;;;;;5006600;28;20049;-86
2022/01/01 21:34:42;;;;;;;22.15;6.72;;;;;;;;;;5009832;28;20045;-86
2022/01/01 21:37:10;;;;;;;26.10;6.47;;;;;;;;;;5009018;28;20049;-86
2022/01/01 21:39:38;;;;;;;30.17;6.32;;;;;;;;;;5007005;28;20069;-87
2022/01/01 21:42:06;;;;;;;30.08;7.05;;;;;;;;;;5007177;28;20066;-85
2022/01/01 21:44:33;;;;;;;26.38;6.20;;;;;;;;;;5011696;28;20058;-87
2022/01/01 21:47:00;;;;;;;27.80;6.70;;;;;;;;;;5012457;28;20050;-85
2022/01/01 21:49:27;;;;;;;21.20;6.50;;;;;;;;;;5010249;28;20042;-84
2022/01/01 21:51:56;;;;;;;24.00;5.80;;;;;;;;;;5006981;28;20085;-87
2022/01/01 21:54:23;;;;;;;25.33;6.13;;;;;;;;;;5011555;28;20079;-85
2022/01/01 21:56:49;;;;;;;21.40;5.63;;;;;;;;;;5020514;28;20046;-87
2022/01/01 21:59:16;;;;;;;25.55;6.53;;;;;;;;;;5018804;28;20064;-88
2022/01/01 22:01:42;;;;;;;25.58;6.00;;;;;;;;;;5012397;28;20116;-86
2022/01/01 22:04:09;;;;;;;30.25;5.82;;;;;;;;;;5010081;28;20073;-86
2022/01/01 22:06:36;;;;;;;30.88;5.72;;;;;;;;;;5012361;28;20041;-88
2022/01/01 22:09:03;;;;;;;29.60;7.22;;;;;;;;;;5010049;28;20050;-88
2022/01/01 22:11:30;;;;;;;25.65;7.15;;;;;;;;;;5007539;28;20054;-85
2022/01/01 22:13:58;;;;;;;28.98;8.02;;;;;;;;;;5020731;28;20037;-85
2022/01/01 22:16:25;;;;;;;33.22;7.68;;;;;;;;;;5008653;28;20514;-86
2022/01/01 22:18:52;;;;;;;35.25;7.75;;;;;;;;;;5010583;28;20438;-85
2022/01/01 22:21:19;;;;;;;33.80;8.02;;;;;;;;;;5008461;28;20050;-86